createdAt,value
2022-08-23T00:01:35.323Z,80.50
2022-08-23T00:04:09.745Z,81.00
2022-08-23T00:06:42.798Z,81.20
2022-08-23T00:09:11.559Z,81.50
2022-08-23T00:11:43.407Z,81.80
2022-08-23T00:14:16.915Z,82.00
2022-08-23T00:16:46.775Z,82.30
2022-08-23T00:19:18.138Z,82.40
2022-08-23T00:21:49.071Z,82.60
2022-08-23T00:24:20.106Z,82.70
2022-08-23T00:27:05.070Z,82.90
2022-08-23T00:29:36.478Z,84.20
2022-08-23T00:32:07.539Z,83.30
2022-08-23T00:34:36.448Z,83.50
2022-08-23T00:37:08.720Z,83.60
2022-08-23T00:39:38.211Z,83.60
2022-08-23T00:42:26.668Z,83.90
2022-08-23T00:45:14.079Z,84.00
2022-08-23T00:47:45.012Z,84.20
2022-08-23T00:50:28.697Z,84.40
2022-08-23T00:53:07.708Z,84.40
2022-08-23T00:55:37.782Z,84.80
2022-08-23T00:58:06.154Z,84.90
2022-08-23T01:00:34.858Z,85.10
2022-08-23T01:03:07.065Z,85.20
2022-08-23T01:05:52.674Z,84.90
2022-08-23T01:08:25.831Z,85.00
2022-08-23T01:11:01.714Z,85.40
2022-08-23T01:13:43.023Z,85.20
2022-08-23T01:16:20.299Z,85.10
2022-08-23T01:18:50.608Z,85.20
2022-08-23T01:21:30.933Z,85.30
2022-08-23T01:24:04.348Z,85.30
2022-08-23T01:26:35.162Z,85.80
2022-08-23T01:29:07.241Z,84.60
2022-08-23T01:31:37.257Z,84.60
2022-08-23T01:34:09.555Z,84.60
2022-08-23T01:36:38.857Z,85.10
2022-08-23T01:39:08.928Z,85.50
2022-08-23T01:41:38.433Z,85.60
2022-08-23T01:44:07.493Z,86.00
2022-08-23T01:46:37.437Z,86.20
2022-08-23T01:49:08.486Z,86.40
2022-08-23T01:51:37.417Z,86.70
2022-08-23T01:54:07.692Z,86.90
2022-08-23T01:56:39.037Z,87.30
2022-08-23T01:59:08.812Z,87.40
2022-08-23T02:01:38.189Z,87.70
2022-08-23T02:04:07.517Z,87.90
2022-08-23T02:06:35.731Z,88.10
2022-08-23T02:09:05.847Z,88.20
2022-08-23T02:11:49.891Z,88.40
2022-08-23T02:14:22.032Z,88.60
2022-08-23T02:17:03.256Z,88.90
2022-08-23T02:19:33.198Z,88.80
2022-08-23T02:22:01.611Z,89.00
2022-08-23T02:24:31.022Z,89.00
2022-08-23T02:27:05.208Z,88.90
2022-08-23T02:29:38.330Z,89.00
2022-08-23T02:32:09.916Z,89.30
2022-08-23T02:34:38.458Z,89.40
2022-08-23T02:37:07.331Z,89.50
2022-08-23T02:39:35.780Z,89.60
2022-08-23T02:42:12.268Z,89.80
2022-08-23T02:44:40.543Z,89.80
2022-08-23T02:47:09.222Z,90.00
2022-08-23T02:49:37.801Z,90.10
2022-08-23T02:52:07.411Z,90.10
2022-08-23T02:54:36.374Z,90.20
2022-08-23T02:57:05.210Z,90.30
2022-08-23T02:59:35.329Z,90.40
2022-08-23T03:02:03.430Z,90.40
2022-08-23T03:04:32.090Z,90.50
2022-08-23T03:07:00.568Z,90.60
2022-08-23T03:09:29.373Z,90.80
2022-08-23T03:11:57.365Z,90.80
2022-08-23T03:14:27.410Z,90.90
2022-08-23T03:16:58.423Z,91.00
2022-08-23T03:19:27.874Z,91.00
2022-08-23T03:21:55.972Z,91.10
2022-08-23T03:24:24.119Z,91.20
2022-08-23T03:26:52.581Z,91.20
2022-08-23T03:29:20.675Z,91.30
2022-08-23T03:31:48.859Z,91.40
2022-08-23T03:34:18.469Z,91.40
2022-08-23T03:36:47.484Z,91.40
2022-08-23T03:39:16.215Z,91.40
2022-08-23T03:41:44.222Z,91.40
2022-08-23T03:44:12.752Z,91.50
2022-08-23T03:46:40.763Z,91.60
2022-08-23T03:49:09.098Z,91.60
2022-08-23T03:51:38.603Z,91.60
2022-08-23T03:54:07.047Z,91.70
2022-08-23T03:56:38.686Z,91.70
2022-08-23T03:59:11.866Z,91.80
2022-08-23T04:01:40.131Z,91.80
2022-08-23T04:04:08.313Z,91.90
2022-08-23T04:06:38.065Z,92.00
2022-08-23T04:09:06.501Z,91.90
2022-08-23T04:11:34.700Z,91.80
2022-08-23T04:14:02.960Z,91.80
2022-08-23T04:16:33.424Z,91.90
2022-08-23T04:19:01.644Z,91.90
2022-08-23T04:21:30.306Z,91.90
2022-08-23T04:23:59.934Z,92.00
2022-08-23T04:26:30.286Z,92.00
2022-08-23T04:28:58.682Z,92.00
2022-08-23T04:31:29.021Z,92.10
2022-08-23T04:34:03.930Z,92.10
2022-08-23T04:36:38.243Z,92.10
2022-08-23T04:39:08.576Z,92.10
2022-08-23T04:41:54.570Z,92.10
2022-08-23T04:44:23.331Z,92.20
2022-08-23T04:46:51.364Z,92.20
2022-08-23T04:49:24.458Z,92.20
2022-08-23T04:51:53.492Z,92.20
2022-08-23T04:54:23.674Z,92.30
2022-08-23T04:56:52.064Z,92.30
2022-08-23T04:59:20.368Z,92.40
2022-08-23T05:01:48.419Z,92.50
2022-08-23T05:04:16.651Z,92.50
2022-08-23T05:06:45.655Z,92.60
2022-08-23T05:09:19.869Z,92.60
2022-08-23T05:11:50.625Z,92.50
2022-08-23T05:14:19.338Z,92.70
2022-08-23T05:16:47.482Z,92.90
2022-08-23T05:19:15.521Z,92.90
2022-08-23T05:21:44.074Z,92.90
2022-08-23T05:24:13.778Z,93.00
2022-08-23T05:26:42.497Z,93.10
2022-08-23T05:29:12.294Z,93.20
2022-08-23T05:31:40.505Z,93.20
2022-08-23T05:34:08.812Z,93.30
2022-08-23T05:36:37.678Z,93.40
2022-08-23T05:39:06.307Z,93.50
2022-08-23T05:41:38.237Z,93.80
2022-08-23T05:44:06.871Z,94.00
2022-08-23T05:46:39.473Z,94.30
2022-08-23T05:49:11.559Z,94.30
2022-08-23T05:51:43.742Z,94.40
2022-08-23T05:54:14.112Z,94.50
2022-08-23T05:56:45.238Z,94.70
2022-08-23T05:59:19.478Z,94.80
2022-08-23T06:01:49.111Z,94.90
2022-08-23T06:04:19.098Z,94.90
2022-08-23T06:06:48.315Z,94.90
2022-08-23T06:09:19.322Z,94.90
2022-08-23T06:11:49.430Z,95.00
2022-08-23T06:14:18.026Z,95.00
2022-08-23T06:16:55.489Z,95.00
2022-08-23T06:19:24.885Z,95.00
2022-08-23T06:21:53.790Z,95.00
2022-08-23T06:24:23.219Z,95.00
2022-08-23T06:26:52.290Z,95.00
2022-08-23T06:29:21.521Z,94.90
2022-08-23T06:31:54.103Z,95.00
2022-08-23T06:34:29.314Z,95.00
2022-08-23T06:37:01.016Z,95.00
2022-08-23T06:39:36.785Z,95.00
2022-08-23T06:42:34.344Z,95.00
2022-08-23T06:44:57.341Z,95.00
2022-08-23T06:47:27.023Z,94.90
2022-08-23T06:49:57.720Z,94.80
2022-08-23T06:52:27.317Z,94.50
2022-08-23T06:54:55.797Z,94.30
2022-08-23T06:57:26.459Z,94.10
2022-08-23T06:59:55.003Z,93.90
2022-08-23T07:02:23.166Z,93.70
2022-08-23T07:04:54.219Z,93.50
2022-08-23T07:07:22.701Z,93.40
2022-08-23T07:09:50.970Z,93.20
2022-08-23T07:12:19.790Z,93.00
2022-08-23T07:14:48.134Z,92.90
2022-08-23T07:17:16.951Z,92.80
2022-08-23T07:19:45.450Z,92.70
2022-08-23T07:22:15.665Z,92.70
2022-08-23T07:24:44.003Z,92.50
2022-08-23T07:27:12.496Z,92.50
2022-08-23T07:29:41.406Z,92.20
2022-08-23T07:32:11.137Z,91.90
2022-08-23T07:34:39.256Z,91.70
2022-08-23T07:37:11.210Z,91.60
2022-08-23T07:39:45.974Z,91.40
2022-08-23T07:42:22.723Z,91.30
2022-08-23T07:44:51.835Z,91.00
2022-08-23T07:47:21.618Z,90.80
2022-08-23T07:49:49.995Z,90.30
2022-08-23T07:52:18.454Z,90.00
2022-08-23T07:54:48.266Z,90.20
2022-08-23T07:57:18.134Z,89.70
2022-08-23T07:59:46.784Z,89.30
2022-08-23T08:02:15.502Z,88.30
2022-08-23T08:04:43.996Z,86.80
2022-08-23T08:07:21.221Z,87.30
2022-08-23T08:09:50.984Z,86.90
2022-08-23T08:12:19.133Z,87.10
2022-08-23T08:14:48.710Z,86.60
2022-08-23T08:17:18.166Z,86.00
2022-08-23T08:19:47.012Z,85.50
2022-08-23T08:22:15.118Z,85.60
2022-08-23T08:24:43.535Z,85.50
2022-08-23T08:27:13.029Z,85.20
2022-08-23T08:29:41.978Z,84.90
2022-08-23T08:32:13.935Z,84.40
2022-08-23T08:34:43.095Z,83.60
2022-08-23T08:37:11.403Z,83.20
2022-08-23T08:39:45.456Z,83.50
2022-08-23T08:42:43.371Z,83.20
2022-08-23T08:45:17.501Z,81.40
2022-08-23T08:47:53.398Z,82.30
2022-08-23T08:50:28.431Z,82.30
2022-08-23T08:53:05.364Z,81.90
2022-08-23T08:55:39.634Z,80.80
2022-08-23T08:58:20.418Z,80.80
2022-08-23T09:00:52.703Z,81.10
2022-08-23T09:03:25.106Z,80.20
2022-08-23T09:06:01.111Z,79.30
2022-08-23T09:08:48.849Z,79.40
2022-08-23T09:11:34.977Z,78.10
2022-08-23T09:14:39.368Z,77.40
2022-08-23T09:17:20.850Z,75.50
2022-08-23T09:19:54.116Z,77.70
2022-08-23T09:22:33.811Z,77.50
2022-08-23T09:25:02.150Z,77.10
2022-08-23T09:27:32.819Z,77.00
2022-08-23T09:30:03.519Z,76.70
2022-08-23T09:32:34.816Z,75.80
2022-08-23T09:35:17.187Z,75.80
2022-08-23T09:37:57.355Z,75.20
2022-08-23T09:40:41.343Z,74.40
2022-08-23T09:43:15.571Z,72.60
2022-08-23T09:45:58.527Z,73.90
2022-08-23T09:48:41.549Z,72.50
2022-08-23T09:51:23.413Z,72.50
2022-08-23T09:54:08.078Z,72.90
2022-08-23T09:56:41.403Z,72.80
2022-08-23T09:59:40.165Z,72.80
2022-08-23T10:02:25.087Z,69.10
2022-08-23T10:05:03.179Z,71.90
2022-08-23T10:07:42.473Z,72.10
2022-08-23T10:10:29.283Z,72.20
2022-08-23T10:12:59.057Z,68.90
2022-08-23T10:15:52.086Z,71.20
2022-08-23T10:18:39.050Z,70.20
2022-08-23T10:21:21.083Z,69.20
2022-08-23T10:24:16.623Z,70.30
2022-08-23T10:27:03.443Z,68.70
2022-08-23T10:29:42.703Z,69.90
2022-08-23T10:32:27.066Z,68.40
2022-08-23T10:35:14.927Z,68.40
2022-08-23T10:37:54.428Z,68.90
2022-08-23T10:40:33.719Z,69.20
2022-08-23T10:43:15.956Z,68.90
2022-08-23T10:45:47.743Z,68.00
2022-08-23T10:48:28.144Z,67.90
2022-08-23T10:51:03.716Z,67.20
2022-08-23T10:53:46.034Z,67.40
2022-08-23T10:56:19.042Z,67.30
2022-08-23T10:58:52.899Z,67.50
2022-08-23T11:01:26.230Z,67.00
2022-08-23T11:04:04.707Z,66.20
2022-08-23T11:06:52.585Z,66.20
2022-08-23T11:10:16.336Z,64.90
2022-08-23T11:12:56.623Z,64.10
2022-08-23T11:15:44.576Z,65.50
2022-08-23T11:18:42.366Z,63.60
2022-08-23T11:21:45.482Z,62.40
2022-08-23T11:24:55.486Z,64.70
2022-08-23T11:27:33.782Z,62.80
2022-08-23T11:30:49.884Z,64.20
2022-08-23T11:33:24.191Z,59.80
2022-08-23T11:35:56.346Z,63.70
2022-08-23T11:39:05.778Z,63.60
2022-08-23T11:42:03.504Z,60.90
2022-08-23T11:44:42.002Z,63.20
2022-08-23T11:47:12.892Z,62.00
2022-08-23T11:50:26.037Z,62.30
2022-08-23T11:53:36.308Z,59.90
2022-08-23T11:56:46.208Z,59.80
2022-08-23T11:59:41.878Z,59.40
2022-08-23T12:02:42.349Z,59.90
2022-08-23T12:05:32.357Z,59.30
2022-08-23T12:08:55.323Z,59.40
2022-08-23T12:11:26.396Z,59.30
2022-08-23T12:14:01.433Z,60.40
2022-08-23T12:16:37.398Z,60.00
2022-08-23T12:19:13.684Z,59.70
2022-08-23T12:21:48.251Z,59.70
2022-08-23T12:24:25.957Z,60.10
2022-08-23T12:27:15.387Z,58.80
2022-08-23T12:29:59.670Z,58.50
2022-08-23T12:32:41.367Z,57.40
2022-08-23T12:35:32.916Z,58.10
2022-08-23T12:38:10.978Z,57.60
2022-08-23T12:40:43.941Z,57.60
2022-08-23T12:43:22.793Z,57.70
2022-08-23T12:45:56.472Z,57.20
2022-08-23T12:48:28.947Z,57.10
2022-08-23T12:51:01.243Z,57.30
2022-08-23T12:53:32.559Z,57.30
2022-08-23T12:56:06.437Z,57.20
2022-08-23T12:58:39.921Z,57.10
2022-08-23T13:01:22.226Z,57.00
2022-08-23T13:04:07.059Z,56.30
2022-08-23T13:06:42.943Z,56.40
2022-08-23T13:09:20.865Z,56.30
2022-08-23T13:11:49.773Z,55.30
2022-08-23T13:14:26.965Z,55.30
2022-08-23T13:17:18.332Z,54.40
2022-08-23T13:19:49.090Z,54.10
2022-08-23T13:22:25.031Z,54.10
2022-08-23T13:25:27.599Z,53.40
2022-08-23T13:27:57.063Z,53.30
2022-08-23T13:30:29.653Z,54.00
2022-08-23T13:33:23.221Z,53.40
2022-08-23T13:36:13.400Z,52.00
2022-08-23T13:38:43.205Z,53.80
2022-08-23T13:41:27.552Z,53.80
2022-08-23T13:43:56.104Z,53.80
2022-08-23T13:46:27.591Z,53.60
2022-08-23T13:49:05.487Z,53.50
2022-08-23T13:51:38.777Z,52.80
2022-08-23T13:54:11.807Z,53.00
2022-08-23T13:56:48.886Z,52.70
2022-08-23T13:59:26.812Z,52.70
2022-08-23T14:02:02.403Z,52.60
2022-08-23T14:04:32.493Z,52.40
2022-08-23T14:07:00.739Z,52.30
2022-08-23T14:09:28.901Z,52.40
2022-08-23T14:12:02.860Z,51.90
2022-08-23T14:14:35.761Z,51.40
2022-08-23T14:17:04.674Z,51.70
2022-08-23T14:22:22.784Z,51.30
2022-08-23T14:24:50.771Z,51.20
2022-08-23T14:27:19.209Z,50.90
2022-08-23T14:29:47.544Z,50.70
2022-08-23T14:32:15.684Z,50.60
2022-08-23T14:34:45.400Z,50.20
2022-08-23T14:38:00.555Z,50.20
2022-08-23T14:40:01.706Z,50.00
2022-08-23T14:42:29.916Z,49.80
2022-08-23T14:44:58.064Z,50.10
2022-08-23T14:47:26.761Z,50.60
2022-08-23T14:49:56.382Z,50.20
2022-08-23T14:52:24.838Z,50.00
2022-08-23T14:54:53.024Z,49.70
2022-08-23T14:57:21.242Z,49.60
2022-08-23T14:59:50.033Z,49.60
2022-08-23T15:02:24.421Z,49.40
2022-08-23T15:04:53.449Z,49.40
2022-08-23T15:07:50.265Z,49.30
2022-08-23T15:13:26.159Z,49.00
2022-08-23T15:16:07.235Z,48.80
2022-08-23T15:18:36.738Z,48.70
2022-08-23T15:21:05.556Z,48.90
2022-08-23T15:23:35.025Z,48.70
2022-08-23T15:26:03.239Z,48.80
2022-08-23T15:28:32.181Z,48.50
2022-08-23T15:31:00.444Z,48.40
2022-08-23T15:33:31.479Z,48.10
2022-08-23T15:36:01.840Z,48.10
2022-08-23T15:38:32.518Z,48.00
2022-08-23T15:41:02.473Z,48.00
2022-08-23T15:43:34.180Z,47.80
2022-08-23T15:46:08.420Z,48.00
2022-08-23T15:48:43.671Z,48.10
2022-08-23T15:51:13.422Z,47.80
2022-08-23T15:53:41.914Z,48.00
2022-08-23T15:56:18.130Z,47.90
2022-08-23T15:58:47.016Z,47.90
2022-08-23T16:01:20.705Z,47.90
2022-08-23T16:03:50.800Z,48.00
2022-08-23T16:06:19.080Z,48.00
2022-08-23T16:08:52.177Z,48.00
2022-08-23T16:11:22.843Z,47.80
2022-08-23T16:13:53.775Z,47.80
2022-08-23T16:16:26.443Z,47.90
2022-08-23T16:18:55.629Z,47.90
2022-08-23T16:21:25.183Z,47.90
2022-08-23T16:23:53.220Z,47.80
2022-08-23T16:26:34.928Z,47.80
2022-08-23T16:29:06.823Z,47.90
2022-08-23T16:31:38.874Z,48.00
2022-08-23T16:34:10.322Z,48.10
2022-08-23T16:36:39.650Z,48.20
2022-08-23T16:39:08.780Z,48.30
2022-08-23T16:41:38.439Z,48.20
2022-08-23T16:44:07.741Z,48.30
2022-08-23T16:46:41.088Z,48.30
2022-08-23T16:49:09.431Z,48.40
2022-08-23T16:51:37.690Z,48.50
2022-08-23T16:54:08.213Z,48.50
2022-08-23T16:56:40.012Z,48.50
2022-08-23T16:59:12.670Z,48.50
2022-08-23T17:01:48.273Z,48.70
2022-08-23T17:04:17.183Z,48.70
2022-08-23T17:06:46.192Z,48.70
2022-08-23T17:09:15.397Z,48.70
2022-08-23T17:11:48.918Z,48.70
2022-08-23T17:14:17.701Z,48.80
2022-08-23T17:16:46.596Z,48.70
2022-08-23T17:19:15.647Z,48.80
2022-08-23T17:21:45.058Z,48.80
2022-08-23T17:24:13.218Z,48.80
2022-08-23T17:26:41.550Z,48.80
2022-08-23T17:29:12.225Z,49.00
2022-08-23T17:31:40.481Z,49.10
2022-08-23T17:34:09.037Z,49.20
2022-08-23T17:36:48.071Z,49.20
2022-08-23T17:39:19.691Z,49.20
2022-08-23T17:41:48.061Z,49.40
2022-08-23T17:44:18.227Z,49.50
2022-08-23T17:46:47.735Z,49.70
2022-08-23T17:49:20.066Z,49.80
2022-08-23T17:51:49.262Z,49.90
2022-08-23T17:54:18.462Z,50.00
2022-08-23T17:56:50.613Z,50.10
2022-08-23T17:59:21.366Z,50.20
2022-08-23T18:01:49.820Z,50.40
2022-08-23T18:04:19.442Z,50.60
2022-08-23T18:06:47.737Z,50.80
2022-08-23T18:09:17.386Z,50.90
2022-08-23T18:11:45.723Z,51.60
2022-08-23T18:14:13.879Z,51.30
2022-08-23T18:16:44.133Z,51.40
2022-08-23T18:19:14.454Z,51.50
2022-08-23T18:21:49.171Z,51.70
2022-08-23T18:24:18.473Z,51.80
2022-08-23T18:27:04.699Z,52.00
2022-08-23T18:29:36.309Z,52.10
2022-08-23T18:32:08.133Z,52.30
2022-08-23T18:34:39.356Z,52.40
2022-08-23T18:37:08.473Z,52.60
2022-08-23T18:39:36.638Z,52.80
2022-08-23T18:42:09.064Z,52.90
2022-08-23T18:44:37.441Z,53.10
2022-08-23T18:47:08.268Z,53.30
2022-08-23T18:49:38.651Z,53.40
2022-08-23T18:52:07.548Z,53.50
2022-08-23T18:54:37.676Z,53.70
2022-08-23T18:57:06.909Z,54.30
2022-08-23T18:59:34.925Z,53.90
2022-08-23T19:02:03.128Z,53.90
2022-08-23T19:04:32.621Z,54.10
2022-08-23T19:07:00.639Z,54.30
2022-08-23T19:09:28.803Z,54.50
2022-08-23T19:11:56.921Z,54.60
2022-08-23T19:14:25.034Z,55.20
2022-08-23T19:16:53.240Z,54.70
2022-08-23T19:19:21.664Z,54.90
2022-08-23T19:21:51.217Z,55.10
2022-08-23T19:24:19.303Z,55.30
2022-08-23T19:26:48.880Z,55.50
2022-08-23T19:29:18.536Z,55.60
2022-08-23T19:31:48.021Z,55.80
2022-08-23T19:34:17.434Z,56.00
2022-08-23T19:36:50.340Z,56.20
2022-08-23T19:39:26.071Z,56.40
2022-08-23T19:41:54.244Z,56.60
2022-08-23T19:44:22.625Z,56.70
2022-08-23T19:46:51.517Z,56.90
2022-08-23T19:49:19.659Z,57.10
2022-08-23T19:51:47.839Z,56.90
2022-08-23T19:54:16.356Z,56.90
2022-08-23T19:56:50.068Z,56.90
2022-08-23T19:59:23.126Z,57.00
2022-08-23T20:01:52.824Z,57.10
2022-08-23T20:04:23.207Z,57.30
2022-08-23T20:06:51.498Z,57.70
2022-08-23T20:09:22.339Z,58.00
2022-08-23T20:11:53.698Z,58.30
2022-08-23T20:14:22.713Z,58.50
2022-08-23T20:16:52.062Z,58.60
2022-08-23T20:19:20.530Z,58.80
2022-08-23T20:21:48.670Z,58.90
2022-08-23T20:24:16.799Z,59.10
2022-08-23T20:26:47.859Z,59.00
2022-08-23T20:29:21.987Z,59.00
2022-08-23T20:31:54.504Z,58.90
2022-08-23T20:34:23.535Z,58.90
2022-08-23T20:36:56.581Z,58.90
2022-08-23T20:39:25.600Z,59.10
2022-08-23T20:41:54.948Z,59.30
2022-08-23T20:44:27.282Z,59.40
2022-08-23T20:46:58.701Z,59.60
2022-08-23T20:49:30.334Z,59.60
2022-08-23T20:51:58.365Z,59.70
2022-08-23T20:54:26.597Z,59.70
2022-08-23T20:56:54.648Z,59.90
2022-08-23T20:59:23.020Z,60.10
2022-08-23T21:01:52.434Z,60.20
2022-08-23T21:04:21.861Z,60.40
2022-08-23T21:06:58.575Z,60.60
2022-08-23T21:09:29.506Z,60.90
2022-08-23T21:11:58.445Z,61.20
2022-08-23T21:14:26.491Z,61.50
2022-08-23T21:16:56.395Z,61.70
2022-08-23T21:19:24.433Z,61.80
2022-08-23T21:21:52.470Z,62.20
2022-08-23T21:24:20.546Z,62.40
2022-08-23T21:26:48.673Z,62.50
2022-08-23T21:29:16.909Z,62.70
2022-08-23T21:31:45.095Z,62.90
2022-08-23T21:34:18.519Z,63.10
2022-08-23T21:36:46.653Z,63.20
2022-08-23T21:39:14.746Z,63.40
2022-08-23T21:41:46.030Z,63.70
2022-08-23T21:44:17.350Z,63.90
2022-08-23T21:46:46.649Z,64.20
2022-08-23T21:49:17.624Z,64.50
2022-08-23T21:51:46.767Z,64.60
2022-08-23T21:54:15.616Z,64.70
2022-08-23T21:56:44.277Z,65.10
2022-08-23T21:59:17.211Z,65.20
2022-08-23T22:01:46.363Z,65.40
2022-08-23T22:04:17.646Z,65.50
2022-08-23T22:06:48.011Z,65.60
2022-08-23T22:09:25.761Z,65.70
2022-08-23T22:12:00.566Z,65.80
2022-08-23T22:14:31.688Z,66.00
2022-08-23T22:17:00.783Z,66.40
2022-08-23T22:19:30.487Z,66.70
2022-08-23T22:21:58.738Z,66.90
2022-08-23T22:24:27.077Z,67.30
2022-08-23T22:26:56.307Z,67.50
2022-08-23T22:29:25.381Z,67.60
2022-08-23T22:31:53.392Z,67.80
2022-08-23T22:34:21.712Z,68.00
2022-08-23T22:36:52.260Z,68.20
2022-08-23T22:39:21.638Z,68.40
2022-08-23T22:41:50.751Z,68.70
2022-08-23T22:44:19.417Z,68.90
2022-08-23T22:46:47.627Z,69.20
2022-08-23T22:49:16.006Z,69.40
2022-08-23T22:51:44.433Z,69.80
2022-08-23T22:54:14.857Z,70.10
2022-08-23T22:56:46.585Z,70.20
2022-08-23T22:59:16.958Z,70.50
2022-08-23T23:01:51.909Z,70.70
2022-08-23T23:04:25.090Z,70.90
2022-08-23T23:06:55.412Z,70.90
2022-08-23T23:09:26.186Z,70.80
2022-08-23T23:11:55.417Z,70.90
2022-08-23T23:14:24.604Z,70.80
2022-08-23T23:16:54.011Z,71.00
2022-08-23T23:19:41.182Z,71.10
2022-08-23T23:22:10.982Z,71.40
2022-08-23T23:24:42.013Z,71.50
2022-08-23T23:27:10.551Z,71.80
2022-08-23T23:29:38.918Z,72.10
2022-08-23T23:32:07.471Z,72.40
2022-08-23T23:34:37.766Z,72.80
2022-08-23T23:37:06.317Z,72.70
2022-08-23T23:39:34.506Z,72.90
2022-08-23T23:42:03.960Z,73.10
2022-08-23T23:44:32.205Z,73.20
2022-08-23T23:47:02.054Z,73.30
2022-08-23T23:49:32.851Z,73.40
2022-08-23T23:52:03.671Z,73.40
2022-08-23T23:54:33.822Z,73.60
2022-08-23T23:57:03.574Z,73.80
2022-08-23T23:59:31.730Z,74.00
